sensor_id;sensor_type;location;lat;lon;timestamp;pressure;altitude;pressure_sealevel;temperature;humidity
29733;BME280;16643;43.158;25.302;2022-12-20T00:00:48;100332.53;;;-2.65;94.24
29733;BME280;16643;43.158;25.302;2022-12-20T00:03:14;100334.16;;;-2.80;93.46
29733;BME280;16643;43.158;25.302;2022-12-20T00:05:40;100328.63;;;-2.87;93.42
29733;BME280;16643;43.158;25.302;2022-12-20T00:08:06;100326.19;;;-2.86;94.26
29733;BME280;16643;43.158;25.302;2022-12-20T00:10:39;100321.06;;;-3.01;94.66
29733;BME280;16643;43.158;25.302;2022-12-20T00:13:05;100331.13;;;-3.17;95.04
29733;BME280;16643;43.158;25.302;2022-12-20T00:15:31;100334.81;;;-3.12;95.70
29733;BME280;16643;43.158;25.302;2022-12-20T00:17:57;100338.22;;;-3.11;94.89
29733;BME280;16643;43.158;25.302;2022-12-20T00:20:23;100338.88;;;-3.28;95.12
29733;BME280;16643;43.158;25.302;2022-12-20T00:22:49;100348.63;;;-3.21;95.00
29733;BME280;16643;43.158;25.302;2022-12-20T00:25:14;100345.44;;;-3.32;94.44
29733;BME280;16643;43.158;25.302;2022-12-20T00:27:40;100342.69;;;-3.35;95.38
29733;BME280;16643;43.158;25.302;2022-12-20T00:30:05;100351.06;;;-3.23;96.61
29733;BME280;16643;43.158;25.302;2022-12-20T00:32:31;100346.63;;;-3.12;96.44
29733;BME280;16643;43.158;25.302;2022-12-20T00:34:57;100334.38;;;-3.05;96.76
29733;BME280;16643;43.158;25.302;2022-12-20T00:37:22;100338.97;;;-2.99;95.59
29733;BME280;16643;43.158;25.302;2022-12-20T00:39:47;100336.50;;;-2.98;95.50
29733;BME280;16643;43.158;25.302;2022-12-20T00:42:13;100339.94;;;-2.97;95.63
29733;BME280;16643;43.158;25.302;2022-12-20T00:44:39;100329.47;;;-3.02;96.00
29733;BME280;16643;43.158;25.302;2022-12-20T00:47:05;100329.72;;;-3.12;95.81
29733;BME280;16643;43.158;25.302;2022-12-20T00:49:30;100322.09;;;-3.12;96.30
29733;BME280;16643;43.158;25.302;2022-12-20T00:51:55;100320.81;;;-3.05;96.14
29733;BME280;16643;43.158;25.302;2022-12-20T00:54:21;100325.06;;;-3.04;95.55
29733;BME280;16643;43.158;25.302;2022-12-20T00:56:46;100313.38;;;-3.15;95.66
29733;BME280;16643;43.158;25.302;2022-12-20T00:59:12;100309.81;;;-3.19;96.20
29733;BME280;16643;43.158;25.302;2022-12-20T01:01:37;100301.84;;;-3.10;96.15
29733;BME280;16643;43.158;25.302;2022-12-20T01:04:03;100295.38;;;-3.05;96.35
29733;BME280;16643;43.158;25.302;2022-12-20T01:06:29;100315.63;;;-3.07;96.64
29733;BME280;16643;43.158;25.302;2022-12-20T01:08:55;100289.47;;;-3.04;96.63
29733;BME280;16643;43.158;25.302;2022-12-20T01:11:21;100286.78;;;-3.07;96.64
29733;BME280;16643;43.158;25.302;2022-12-20T01:13:49;100284.06;;;-3.10;96.44
29733;BME280;16643;43.158;25.302;2022-12-20T01:16:20;100283.22;;;-3.24;96.63
29733;BME280;16643;43.158;25.302;2022-12-20T01:18:46;100285.56;;;-3.42;96.75
29733;BME280;16643;43.158;25.302;2022-12-20T01:21:13;100279.19;;;-3.76;97.45
29733;BME280;16643;43.158;25.302;2022-12-20T01:23:39;100271.56;;;-3.63;98.83
29733;BME280;16643;43.158;25.302;2022-12-20T01:26:05;100274.41;;;-3.44;98.69
29733;BME280;16643;43.158;25.302;2022-12-20T01:28:33;100274.50;;;-3.42;98.13
29733;BME280;16643;43.158;25.302;2022-12-20T01:30:59;100274.97;;;-3.35;97.29
29733;BME280;16643;43.158;25.302;2022-12-20T01:33:25;100271.13;;;-3.28;97.21
29733;BME280;16643;43.158;25.302;2022-12-20T01:35:54;100278.38;;;-3.34;96.61
29733;BME280;16643;43.158;25.302;2022-12-20T01:38:20;100272.47;;;-3.48;96.12
29733;BME280;16643;43.158;25.302;2022-12-20T01:40:45;100267.16;;;-3.66;96.77
29733;BME280;16643;43.158;25.302;2022-12-20T01:43:11;100264.44;;;-3.69;97.44
29733;BME280;16643;43.158;25.302;2022-12-20T01:45:36;100268.22;;;-3.62;98.10
29733;BME280;16643;43.158;25.302;2022-12-20T01:48:02;100265.47;;;-3.52;97.93
29733;BME280;16643;43.158;25.302;2022-12-20T01:50:27;100263.31;;;-3.59;97.95
29733;BME280;16643;43.158;25.302;2022-12-20T01:52:53;100257.84;;;-3.52;98.18
29733;BME280;16643;43.158;25.302;2022-12-20T01:55:22;100262.59;;;-3.43;97.80
29733;BME280;16643;43.158;25.302;2022-12-20T02:00:18;100249.44;;;-3.51;96.70
29733;BME280;16643;43.158;25.302;2022-12-20T02:02:45;100235.59;;;-3.69;96.93
29733;BME280;16643;43.158;25.302;2022-12-20T02:05:11;100236.47;;;-3.96;97.46
29733;BME280;16643;43.158;25.302;2022-12-20T02:07:39;100233.75;;;-3.99;98.76
29733;BME280;16643;43.158;25.302;2022-12-20T02:10:06;100231.41;;;-4.10;98.75
29733;BME280;16643;43.158;25.302;2022-12-20T02:12:39;100228.09;;;-3.95;99.31
29733;BME280;16643;43.158;25.302;2022-12-20T02:22:53;100218.72;;;-3.96;97.95
29733;BME280;16643;43.158;25.302;2022-12-20T02:25:32;100204.47;;;-4.08;98.07
29733;BME280;16643;43.158;25.302;2022-12-20T02:28:06;100201.41;;;-4.56;98.47
29733;BME280;16643;43.158;25.302;2022-12-20T02:30:41;100221.78;;;-4.81;100.00
29733;BME280;16643;43.158;25.302;2022-12-20T02:33:10;100205.59;;;-4.83;100.00
29733;BME280;16643;43.158;25.302;2022-12-20T02:35:37;100202.88;;;-4.60;100.00
29733;BME280;16643;43.158;25.302;2022-12-20T02:38:48;100200.44;;;-4.45;100.00
29733;BME280;16643;43.158;25.302;2022-12-20T02:40:48;100209.50;;;-4.49;100.00
29733;BME280;16643;43.158;25.302;2022-12-20T02:43:16;100201.78;;;-4.50;100.00
29733;BME280;16643;43.158;25.302;2022-12-20T02:46:00;100191.38;;;-4.42;100.00
29733;BME280;16643;43.158;25.302;2022-12-20T02:48:27;100194.25;;;-4.35;100.00
29733;BME280;16643;43.158;25.302;2022-12-20T02:50:54;100193.66;;;-4.18;100.00
29733;BME280;16643;43.158;25.302;2022-12-20T02:53:21;100213.00;;;-4.20;100.00
29733;BME280;16643;43.158;25.302;2022-12-20T02:55:58;100204.13;;;-4.40;100.00
29733;BME280;16643;43.158;25.302;2022-12-20T02:58:37;100198.47;;;-4.36;100.00
29733;BME280;16643;43.158;25.302;2022-12-20T03:01:09;100197.09;;;-4.18;100.00
29733;BME280;16643;43.158;25.302;2022-12-20T03:03:35;100190.19;;;-4.06;100.00
29733;BME280;16643;43.158;25.302;2022-12-20T03:06:02;100192.16;;;-4.02;100.00
29733;BME280;16643;43.158;25.302;2022-12-20T03:08:28;100185.88;;;-3.93;99.92
29733;BME280;16643;43.158;25.302;2022-12-20T03:10:54;100195.75;;;-3.98;99.53
29733;BME280;16643;43.158;25.302;2022-12-20T03:13:21;100184.94;;;-3.95;99.13
29733;BME280;16643;43.158;25.302;2022-12-20T03:15:46;100200.66;;;-4.01;98.64
29733;BME280;16643;43.158;25.302;2022-12-20T03:18:12;100193.53;;;-4.07;98.32
29733;BME280;16643;43.158;25.302;2022-12-20T03:20:38;100195.50;;;-4.16;98.93
29733;BME280;16643;43.158;25.302;2022-12-20T03:23:03;100190.72;;;-4.11;98.43
29733;BME280;16643;43.158;25.302;2022-12-20T03:25:29;100189.28;;;-4.34;99.25
29733;BME280;16643;43.158;25.302;2022-12-20T03:27:54;100206.47;;;-4.43;99.35
29733;BME280;16643;43.158;25.302;2022-12-20T03:30:20;100195.34;;;-4.45;99.88
29733;BME280;16643;43.158;25.302;2022-12-20T03:32:45;100194.38;;;-4.34;99.67
29733;BME280;16643;43.158;25.302;2022-12-20T03:35:10;100197.19;;;-4.29;99.74
29733;BME280;16643;43.158;25.302;2022-12-20T03:37:36;100193.47;;;-4.21;99.47
29733;BME280;16643;43.158;25.302;2022-12-20T03:40:01;100196.78;;;-4.09;98.62
29733;BME280;16643;43.158;25.302;2022-12-20T03:42:27;100190.13;;;-4.07;98.50
29733;BME280;16643;43.158;25.302;2022-12-20T03:44:52;100191.94;;;-4.05;99.03
29733;BME280;16643;43.158;25.302;2022-12-20T03:47:18;100184.25;;;-4.06;99.30
29733;BME280;16643;43.158;25.302;2022-12-20T03:49:43;100188.63;;;-4.04;98.88
29733;BME280;16643;43.158;25.302;2022-12-20T03:52:10;100178.22;;;-4.08;98.36
29733;BME280;16643;43.158;25.302;2022-12-20T03:54:36;100174.06;;;-4.34;97.08
29733;BME280;16643;43.158;25.302;2022-12-20T03:57:02;100172.94;;;-4.65;98.13
29733;BME280;16643;43.158;25.302;2022-12-20T03:59:27;100167.66;;;-4.82;99.49
29733;BME280;16643;43.158;25.302;2022-12-20T04:01:53;100175.47;;;-4.79;100.00
29733;BME280;16643;43.158;25.302;2022-12-20T04:04:19;100179.97;;;-4.74;100.00
29733;BME280;16643;43.158;25.302;2022-12-20T04:06:44;100172.06;;;-4.53;100.00
29733;BME280;16643;43.158;25.302;2022-12-20T04:09:10;100172.63;;;-4.44;100.00
29733;BME280;16643;43.158;25.302;2022-12-20T04:11:35;100165.38;;;-4.38;99.88
29733;BME280;16643;43.158;25.302;2022-12-20T04:14:01;100180.81;;;-4.34;99.67
29733;BME280;16643;43.158;25.302;2022-12-20T04:16:27;100181.16;;;-4.28;99.34
29733;BME280;16643;43.158;25.302;2022-12-20T04:18:53;100171.91;;;-4.28;99.48
29733;BME280;16643;43.158;25.302;2022-12-20T04:21:26;100178.19;;;-4.49;98.54
29733;BME280;16643;43.158;25.302;2022-12-20T04:23:51;100170.97;;;-4.43;99.73
29733;BME280;16643;43.158;25.302;2022-12-20T04:26:17;100181.28;;;-4.40;99.34
29733;BME280;16643;43.158;25.302;2022-12-20T04:28:42;100164.81;;;-4.47;99.16
29733;BME280;16643;43.158;25.302;2022-12-20T04:31:08;100165.03;;;-4.57;98.61
29733;BME280;16643;43.158;25.302;2022-12-20T04:33:34;100164.44;;;-4.66;99.19
29733;BME280;16643;43.158;25.302;2022-12-20T04:36:00;100151.38;;;-4.59;99.63
29733;BME280;16643;43.158;25.302;2022-12-20T04:38:25;100146.69;;;-4.53;99.40
29733;BME280;16643;43.158;25.302;2022-12-20T04:40:52;100145.03;;;-4.52;98.36
29733;BME280;16643;43.158;25.302;2022-12-20T04:43:18;100151.31;;;-4.87;98.96
29733;BME280;16643;43.158;25.302;2022-12-20T04:45:44;100145.03;;;-4.92;100.00
29733;BME280;16643;43.158;25.302;2022-12-20T04:48:11;100149.50;;;-4.61;100.00
29733;BME280;16643;43.158;25.302;2022-12-20T04:50:36;100137.50;;;-4.51;99.96
29733;BME280;16643;43.158;25.302;2022-12-20T04:53:01;100145.81;;;-4.53;99.42
29733;BME280;16643;43.158;25.302;2022-12-20T04:55:45;100139.66;;;-4.70;99.74
29733;BME280;16643;43.158;25.302;2022-12-20T04:58:11;100131.19;;;-4.70;100.00
29733;BME280;16643;43.158;25.302;2022-12-20T05:00:36;100133.72;;;-4.57;99.76
29733;BME280;16643;43.158;25.302;2022-12-20T05:03:01;100133.50;;;-4.47;100.00
29733;BME280;16643;43.158;25.302;2022-12-20T05:05:27;100134.28;;;-4.48;100.00
29733;BME280;16643;43.158;25.302;2022-12-20T05:07:53;100125.44;;;-4.55;100.00
29733;BME280;16643;43.158;25.302;2022-12-20T05:10:18;100127.41;;;-4.64;100.00
29733;BME280;16643;43.158;25.302;2022-12-20T05:12:43;100128.94;;;-4.66;100.00
29733;BME280;16643;43.158;25.302;2022-12-20T05:15:09;100132.56;;;-4.76;100.00
29733;BME280;16643;43.158;25.302;2022-12-20T05:17:35;100119.50;;;-4.82;100.00
29733;BME280;16643;43.158;25.302;2022-12-20T05:20:01;100129.63;;;-4.95;100.00
29733;BME280;16643;43.158;25.302;2022-12-20T05:22:26;100136.44;;;-5.07;100.00
29733;BME280;16643;43.158;25.302;2022-12-20T05:25:10;100135.88;;;-5.03;100.00
29733;BME280;16643;43.158;25.302;2022-12-20T05:27:54;100121.44;;;-5.04;100.00
29733;BME280;16643;43.158;25.302;2022-12-20T05:30:20;100127.00;;;-4.96;100.00
29733;BME280;16643;43.158;25.302;2022-12-20T05:32:46;100135.47;;;-4.96;100.00
29733;BME280;16643;43.158;25.302;2022-12-20T05:35:11;100122.91;;;-4.94;100.00
29733;BME280;16643;43.158;25.302;2022-12-20T05:37:37;100129.63;;;-4.95;100.00
29733;BME280;16643;43.158;25.302;2022-12-20T05:40:02;100130.03;;;-5.02;100.00
29733;BME280;16643;43.158;25.302;2022-12-20T05:42:28;100132.78;;;-4.99;100.00
29733;BME280;16643;43.158;25.302;2022-12-20T05:44:54;100126.63;;;-5.16;100.00
29733;BME280;16643;43.158;25.302;2022-12-20T05:47:19;100130.78;;;-5.29;100.00
29733;BME280;16643;43.158;25.302;2022-12-20T05:49:45;100128.66;;;-5.23;100.00
29733;BME280;16643;43.158;25.302;2022-12-20T05:52:10;100122.63;;;-5.25;100.00
29733;BME280;16643;43.158;25.302;2022-12-20T05:54:36;100109.72;;;-5.55;100.00
29733;BME280;16643;43.158;25.302;2022-12-20T05:57:01;100114.91;;;-5.27;100.00
29733;BME280;16643;43.158;25.302;2022-12-20T05:59:27;100120.97;;;-5.12;100.00
29733;BME280;16643;43.158;25.302;2022-12-20T06:01:52;100114.16;;;-5.13;100.00
29733;BME280;16643;43.158;25.302;2022-12-20T06:04:18;100133.16;;;-5.19;100.00
29733;BME280;16643;43.158;25.302;2022-12-20T06:06:45;100125.34;;;-5.22;100.00
29733;BME280;16643;43.158;25.302;2022-12-20T06:09:10;100128.09;;;-5.19;100.00
29733;BME280;16643;43.158;25.302;2022-12-20T06:11:36;100127.59;;;-5.00;100.00
29733;BME280;16643;43.158;25.302;2022-12-20T06:14:01;100127.78;;;-4.84;100.00
29733;BME280;16643;43.158;25.302;2022-12-20T06:16:27;100125.19;;;-4.86;100.00
29733;BME280;16643;43.158;25.302;2022-12-20T06:18:52;100124.28;;;-4.86;100.00
29733;BME280;16643;43.158;25.302;2022-12-20T06:21:18;100125.94;;;-5.00;100.00
29733;BME280;16643;43.158;25.302;2022-12-20T06:23:43;100126.63;;;-4.76;100.00
29733;BME280;16643;43.158;25.302;2022-12-20T06:26:09;100122.13;;;-4.67;100.00
29733;BME280;16643;43.158;25.302;2022-12-20T06:28:34;100135.28;;;-4.59;100.00
29733;BME280;16643;43.158;25.302;2022-12-20T06:31:07;100136.53;;;-4.53;100.00
29733;BME280;16643;43.158;25.302;2022-12-20T06:33:32;100131.94;;;-4.45;100.00
29733;BME280;16643;43.158;25.302;2022-12-20T06:35:58;100131.53;;;-4.38;100.00
29733;BME280;16643;43.158;25.302;2022-12-20T06:38:23;100123.31;;;-4.34;100.00
29733;BME280;16643;43.158;25.302;2022-12-20T06:40:49;100116.47;;;-4.22;100.00
29733;BME280;16643;43.158;25.302;2022-12-20T06:43:15;100122.22;;;-4.24;100.00
29733;BME280;16643;43.158;25.302;2022-12-20T06:45:40;100116.69;;;-4.32;100.00
29733;BME280;16643;43.158;25.302;2022-12-20T06:48:06;100122.59;;;-4.18;100.00
29733;BME280;16643;43.158;25.302;2022-12-20T06:50:31;100121.09;;;-4.15;100.00
29733;BME280;16643;43.158;25.302;2022-12-20T06:52:56;100114.47;;;-4.13;100.00
29733;BME280;16643;43.158;25.302;2022-12-20T06:55:22;100120.78;;;-4.06;100.00
29733;BME280;16643;43.158;25.302;2022-12-20T06:57:47;100115.53;;;-4.09;100.00
29733;BME280;16643;43.158;25.302;2022-12-20T07:00:13;100116.09;;;-4.00;100.00
29733;BME280;16643;43.158;25.302;2022-12-20T07:02:39;100117.78;;;-3.86;100.00
29733;BME280;16643;43.158;25.302;2022-12-20T07:05:04;100122.63;;;-3.76;100.00
29733;BME280;16643;43.158;25.302;2022-12-20T07:07:30;100118.78;;;-3.69;100.00
29733;BME280;16643;43.158;25.302;2022-12-20T07:09:55;100115.00;;;-3.61;100.00
29733;BME280;16643;43.158;25.302;2022-12-20T07:12:21;100114.31;;;-3.58;100.00
29733;BME280;16643;43.158;25.302;2022-12-20T07:14:47;100134.47;;;-3.47;100.00
29733;BME280;16643;43.158;25.302;2022-12-20T07:17:12;100116.50;;;-3.50;100.00
29733;BME280;16643;43.158;25.302;2022-12-20T07:19:38;100114.66;;;-3.38;100.00
29733;BME280;16643;43.158;25.302;2022-12-20T07:22:06;100118.88;;;-3.53;100.00
29733;BME280;16643;43.158;25.302;2022-12-20T07:24:32;100104.34;;;-3.41;100.00
29733;BME280;16643;43.158;25.302;2022-12-20T07:26:58;100104.19;;;-3.29;100.00
29733;BME280;16643;43.158;25.302;2022-12-20T07:29:24;100105.47;;;-3.21;100.00
29733;BME280;16643;43.158;25.302;2022-12-20T07:31:50;100104.31;;;-3.11;100.00
29733;BME280;16643;43.158;25.302;2022-12-20T07:34:15;100097.31;;;-3.15;100.00
29733;BME280;16643;43.158;25.302;2022-12-20T07:36:41;100100.38;;;-3.06;100.00
29733;BME280;16643;43.158;25.302;2022-12-20T07:39:07;100098.16;;;-3.00;100.00
29733;BME280;16643;43.158;25.302;2022-12-20T07:41:32;100099.47;;;-2.92;100.00
29733;BME280;16643;43.158;25.302;2022-12-20T07:43:58;100097.69;;;-2.78;100.00
29733;BME280;16643;43.158;25.302;2022-12-20T07:46:23;100102.53;;;-2.36;100.00
29733;BME280;16643;43.158;25.302;2022-12-20T07:48:49;100096.19;;;-2.11;97.54
29733;BME280;16643;43.158;25.302;2022-12-20T07:51:20;100102.25;;;-1.93;98.58
29733;BME280;16643;43.158;25.302;2022-12-20T07:54:32;100098.19;;;-1.73;96.29
29733;BME280;16643;43.158;25.302;2022-12-20T07:56:33;100098.09;;;-1.75;95.13
29733;BME280;16643;43.158;25.302;2022-12-20T07:58:59;100101.09;;;-1.66;94.64
29733;BME280;16643;43.158;25.302;2022-12-20T08:01:25;100106.53;;;-1.76;94.39
29733;BME280;16643;43.158;25.302;2022-12-20T08:03:52;100095.72;;;-1.88;94.28
29733;BME280;16643;43.158;25.302;2022-12-20T08:06:19;100090.88;;;-2.16;95.64
29733;BME280;16643;43.158;25.302;2022-12-20T08:08:50;100082.47;;;-2.46;100.00
29733;BME280;16643;43.158;25.302;2022-12-20T08:11:17;100096.75;;;-2.01;100.00
29733;BME280;16643;43.158;25.302;2022-12-20T08:13:42;100091.09;;;-1.79;99.17
29733;BME280;16643;43.158;25.302;2022-12-20T08:16:08;100072.81;;;-1.54;96.02
29733;BME280;16643;43.158;25.302;2022-12-20T08:18:34;100094.69;;;-1.58;96.09
29733;BME280;16643;43.158;25.302;2022-12-20T08:20:59;100087.06;;;-1.58;96.08
29733;BME280;16643;43.158;25.302;2022-12-20T08:23:25;100087.47;;;-1.50;96.34
29733;BME280;16643;43.158;25.302;2022-12-20T08:25:50;100080.41;;;-1.38;94.55
29733;BME280;16643;43.158;25.302;2022-12-20T08:28:16;100087.41;;;-1.34;92.49
29733;BME280;16643;43.158;25.302;2022-12-20T08:30:41;100076.38;;;-1.51;92.95
29733;BME280;16643;43.158;25.302;2022-12-20T08:33:06;100087.06;;;-1.58;93.14
29733;BME280;16643;43.158;25.302;2022-12-20T08:35:32;100079.28;;;-1.27;93.76
29733;BME280;16643;43.158;25.302;2022-12-20T08:37:58;100075.28;;;-1.04;93.75
29733;BME280;16643;43.158;25.302;2022-12-20T08:40:23;100075.47;;;-0.99;90.89
29733;BME280;16643;43.158;25.302;2022-12-20T08:42:48;100076.84;;;-0.88;91.88
29733;BME280;16643;43.158;25.302;2022-12-20T08:45:14;100065.19;;;-0.83;90.94
29733;BME280;16643;43.158;25.302;2022-12-20T08:47:39;100076.78;;;-0.72;91.38
29733;BME280;16643;43.158;25.302;2022-12-20T08:50:05;100073.13;;;-0.59;91.14
29733;BME280;16643;43.158;25.302;2022-12-20T08:52:31;100070.34;;;-0.46;92.16
29733;BME280;16643;43.158;25.302;2022-12-20T08:54:56;100074.75;;;-0.42;92.49
29733;BME280;16643;43.158;25.302;2022-12-20T08:57:21;100084.09;;;-0.97;93.04
29733;BME280;16643;43.158;25.302;2022-12-20T08:59:47;100059.88;;;-1.23;95.18
29733;BME280;16643;43.158;25.302;2022-12-20T09:02:14;100054.66;;;-1.26;97.39
29733;BME280;16643;43.158;25.302;2022-12-20T09:04:40;100043.59;;;-1.61;96.66
29733;BME280;16643;43.158;25.302;2022-12-20T09:07:06;100043.94;;;-1.71;99.12
29733;BME280;16643;43.158;25.302;2022-12-20T09:09:31;100034.91;;;-1.82;99.17
29733;BME280;16643;43.158;25.302;2022-12-20T09:11:57;100037.78;;;-2.08;99.49
29733;BME280;16643;43.158;25.302;2022-12-20T09:14:22;100028.47;;;-2.08;100.00
29733;BME280;16643;43.158;25.302;2022-12-20T09:16:49;100028.47;;;-2.08;100.00
29733;BME280;16643;43.158;25.302;2022-12-20T09:19:15;100019.34;;;-2.21;100.00
29733;BME280;16643;43.158;25.302;2022-12-20T09:21:40;100025.56;;;-2.15;100.00
29733;BME280;16643;43.158;25.302;2022-12-20T09:24:06;100013.06;;;-2.43;100.00
29733;BME280;16643;43.158;25.302;2022-12-20T09:26:31;100014.19;;;-2.38;100.00
29733;BME280;16643;43.158;25.302;2022-12-20T09:28:59;100002.16;;;-2.41;100.00
29733;BME280;16643;43.158;25.302;2022-12-20T09:31:26;100001.69;;;-2.34;100.00
29733;BME280;16643;43.158;25.302;2022-12-20T09:33:52;99991.41;;;-2.19;100.00
29733;BME280;16643;43.158;25.302;2022-12-20T09:36:18;99993.47;;;-2.12;100.00
29733;BME280;16643;43.158;25.302;2022-12-20T09:38:44;99994.03;;;-2.17;99.87
29733;BME280;16643;43.158;25.302;2022-12-20T09:41:44;99989.75;;;-2.18;99.14
29733;BME280;16643;43.158;25.302;2022-12-20T09:44:04;99988.00;;;-2.20;100.00
29733;BME280;16643;43.158;25.302;2022-12-20T09:46:34;99981.59;;;-2.11;100.00
29733;BME280;16643;43.158;25.302;2022-12-20T09:49:01;99970.81;;;-1.90;100.00
29733;BME280;16643;43.158;25.302;2022-12-20T09:56:31;99968.66;;;-1.47;96.15
29733;BME280;16643;43.158;25.302;2022-12-20T10:01:28;99958.44;;;-1.11;94.81
29733;BME280;16643;43.158;25.302;2022-12-20T10:03:55;99939.38;;;-1.00;94.32
29733;BME280;16643;43.158;25.302;2022-12-20T10:08:50;99931.28;;;-0.53;91.13
29733;BME280;16643;43.158;25.302;2022-12-20T10:11:41;99943.25;;;-0.71;90.64
29733;BME280;16643;43.158;25.302;2022-12-20T10:16:45;99926.59;;;-1.19;95.32
29733;BME280;16643;43.158;25.302;2022-12-20T10:21:53;99919.06;;;-0.98;96.49
29733;BME280;16643;43.158;25.302;2022-12-20T10:24:24;99917.00;;;-0.68;94.50
29733;BME280;16643;43.158;25.302;2022-12-20T10:26:51;99910.25;;;-0.47;94.65
29733;BME280;16643;43.158;25.302;2022-12-20T10:29:17;99905.13;;;-0.68;91.59
29733;BME280;16643;43.158;25.302;2022-12-20T10:31:43;99899.47;;;-0.61;92.79
29733;BME280;16643;43.158;25.302;2022-12-20T10:34:08;99907.66;;;-0.49;92.69
29733;BME280;16643;43.158;25.302;2022-12-20T10:36:34;99881.03;;;-0.54;90.06
29733;BME280;16643;43.158;25.302;2022-12-20T10:39:01;99873.00;;;-0.23;91.01
29733;BME280;16643;43.158;25.302;2022-12-20T10:41:48;99873.81;;;-0.24;90.11
29733;BME280;16643;43.158;25.302;2022-12-20T10:46:44;99865.06;;;0.35;87.31
29733;BME280;16643;43.158;25.302;2022-12-20T10:51:54;99866.06;;;0.61;87.17
29733;BME280;16643;43.158;25.302;2022-12-20T10:54:27;99853.94;;;0.55;87.43
29733;BME280;16643;43.158;25.302;2022-12-20T10:56:57;99850.91;;;0.65;87.49
29733;BME280;16643;43.158;25.302;2022-12-20T10:59:27;99850.31;;;0.72;84.80
29733;BME280;16643;43.158;25.302;2022-12-20T11:01:54;99833.56;;;0.81;85.34
29733;BME280;16643;43.158;25.302;2022-12-20T11:04:33;99835.41;;;0.85;86.38
29733;BME280;16643;43.158;25.302;2022-12-20T11:06:59;99831.56;;;0.96;81.60
29733;BME280;16643;43.158;25.302;2022-12-20T11:12:01;99820.13;;;-0.03;84.20
29733;BME280;16643;43.158;25.302;2022-12-20T11:14:27;99817.28;;;-0.31;84.79
29733;BME280;16643;43.158;25.302;2022-12-20T11:16:54;99812.84;;;-0.56;87.99
29733;BME280;16643;43.158;25.302;2022-12-20T11:19:30;99812.28;;;-0.70;89.47
29733;BME280;16643;43.158;25.302;2022-12-20T11:22:06;99801.09;;;-0.93;90.55
29733;BME280;16643;43.158;25.302;2022-12-20T11:27:12;99802.44;;;-1.01;95.33
29733;BME280;16643;43.158;25.302;2022-12-20T11:29:44;99802.84;;;-1.30;96.93
29733;BME280;16643;43.158;25.302;2022-12-20T11:50:01;99763.47;;;-1.18;100.00
29733;BME280;16643;43.158;25.302;2022-12-20T11:52:34;99750.72;;;-1.18;100.00
29733;BME280;16643;43.158;25.302;2022-12-20T11:55:14;99770.50;;;-1.31;100.00
29733;BME280;16643;43.158;25.302;2022-12-20T11:57:46;99764.47;;;-1.33;100.00
29733;BME280;16643;43.158;25.302;2022-12-20T12:00:13;99751.38;;;-1.22;99.97
29733;BME280;16643;43.158;25.302;2022-12-20T12:02:47;99757.09;;;-1.27;99.88
29733;BME280;16643;43.158;25.302;2022-12-20T12:05:22;99757.69;;;-1.33;100.00
29733;BME280;16643;43.158;25.302;2022-12-20T12:07:50;99756.88;;;-1.70;98.17
29733;BME280;16643;43.158;25.302;2022-12-20T12:10:24;99747.09;;;-1.61;100.00
29733;BME280;16643;43.158;25.302;2022-12-20T12:12:57;99744.56;;;-1.61;100.00
29733;BME280;16643;43.158;25.302;2022-12-20T12:15:33;99748.53;;;-1.49;100.00
29733;BME280;16643;43.158;25.302;2022-12-20T12:25:45;99740.72;;;-1.52;100.00
29733;BME280;16643;43.158;25.302;2022-12-20T12:28:13;99740.81;;;-1.69;100.00
29733;BME280;16643;43.158;25.302;2022-12-20T12:30:43;99731.44;;;-1.69;100.00
29733;BME280;16643;43.158;25.302;2022-12-20T12:33:18;99727.28;;;-1.67;100.00
29733;BME280;16643;43.158;25.302;2022-12-20T12:35:54;99729.38;;;-1.77;100.00
29733;BME280;16643;43.158;25.302;2022-12-20T12:40:56;99724.78;;;-2.04;100.00
29733;BME280;16643;43.158;25.302;2022-12-20T12:45:56;99733.16;;;-1.69;100.00
29733;BME280;16643;43.158;25.302;2022-12-20T12:50:57;99731.81;;;-1.61;100.00
29733;BME280;16643;43.158;25.302;2022-12-20T12:53:42;99737.44;;;-1.49;100.00
29733;BME280;16643;43.158;25.302;2022-12-20T13:04:21;99734.84;;;-1.11;98.88
29733;BME280;16643;43.158;25.302;2022-12-20T13:11:51;99722.41;;;-1.43;98.09
29733;BME280;16643;43.158;25.302;2022-12-20T13:16:42;99718.84;;;-1.66;100.00
29733;BME280;16643;43.158;25.302;2022-12-20T13:19:14;99717.19;;;-1.65;100.00
29733;BME280;16643;43.158;25.302;2022-12-20T13:21:41;99718.19;;;-1.62;100.00
29733;BME280;16643;43.158;25.302;2022-12-20T13:26:52;99712.41;;;-1.96;100.00
29733;BME280;16643;43.158;25.302;2022-12-20T13:29:24;99710.66;;;-1.97;100.00
29733;BME280;16643;43.158;25.302;2022-12-20T13:31:50;99709.38;;;-1.88;100.00
29733;BME280;16643;43.158;25.302;2022-12-20T13:37:00;99700.13;;;-2.05;100.00
29733;BME280;16643;43.158;25.302;2022-12-20T13:41:52;99693.34;;;-2.04;100.00
29733;BME280;16643;43.158;25.302;2022-12-20T13:44:33;99689.47;;;-2.15;100.00
29733;BME280;16643;43.158;25.302;2022-12-20T13:47:22;99697.78;;;-2.00;100.00
29733;BME280;16643;43.158;25.302;2022-12-20T13:49:48;99696.31;;;-1.95;100.00
29733;BME280;16643;43.158;25.302;2022-12-20T13:54:40;99701.44;;;-2.13;100.00
29733;BME280;16643;43.158;25.302;2022-12-20T13:57:07;99688.38;;;-2.21;100.00
29733;BME280;16643;43.158;25.302;2022-12-20T13:59:33;99688.03;;;-2.28;100.00
29733;BME280;16643;43.158;25.302;2022-12-20T14:02:00;99690.56;;;-2.28;100.00
29733;BME280;16643;43.158;25.302;2022-12-20T14:04:38;99687.50;;;-2.21;100.00
29733;BME280;16643;43.158;25.302;2022-12-20T14:07:04;99688.78;;;-2.11;100.00
29733;BME280;16643;43.158;25.302;2022-12-20T14:09:31;99684.06;;;-2.22;100.00
29733;BME280;16643;43.158;25.302;2022-12-20T14:12:03;99691.06;;;-2.35;100.00
29733;BME280;16643;43.158;25.302;2022-12-20T14:14:29;99683.09;;;-2.43;100.00